Valley Peak, Santa Cruz Island Reserve, California Weather observations

Data are for 10 minute period ending at time listed.
 Day   Time   Solar   Ave.   Ave.  Ave.  Vector  Max.   Baro.   Total    
  of    of     Rad.   Air    Rel.  Wind   Wind   Wind  Press.  Precip.   
Year   Day            Temp.  Hum.  Speed  Dir.   Gust                    
2015   (PST)  Kw/m2    F      %     mph   deg.    mph    mb.     in.     
-------------------------------------------------------------------------
 116   14:50   0.72   70.8    32    7.9   342    17.0   964.5    0.00 
 116   15:00   0.69   70.2    32    9.7   338    19.8   964.4    0.00 
 116   15:10   0.65   70.5    32    7.4   342    18.1   964.3    0.00 
 116   15:20   0.60   70.4    32    9.5   328    22.4   964.3    0.00 
 116   15:30   0.58   70.0    33   10.4   329    18.9   964.3    0.00 
 116   15:40   0.54   69.5    33   10.2   336    17.9   964.1    0.00 
 116   15:50   0.52   69.4    33    8.8   335    17.4   964.0    0.00 
 116   16:00   0.50   68.9    34   13.1   323    21.5   964.0    0.00 
 116   16:10   0.45   68.3    34   15.2   324    23.0   963.9    0.00 
 116   16:20   0.41   67.9    35   16.7   327    26.3   963.8    0.00 
 116   16:30   0.36   67.4    36   15.7   334    25.2   963.7    0.00 
 116   16:40   0.34   66.8    37   14.6   334    26.7   963.7    0.00 
 116   16:50   0.30   66.6    37   18.0   333    29.4   963.7    0.00 
 116   17:00   0.26   65.9    38   16.7   339    28.5   963.6    0.00 
 116   17:10   0.23   65.3    40   15.2   346    26.8   963.4    0.00 
 116   17:20   0.20   64.8    41   15.8   340    29.3   963.5    0.00 
 116   17:30   0.16   64.5    41   16.5   334    30.1   963.6    0.00 
 116   17:40   0.14   64.3    42   18.0   328    29.6   963.6    0.00 
 116   17:50   0.11   63.9    42   16.2   339    28.4   963.6    0.00 
 116   18:00   0.08   63.8    42   15.7   346    29.0   963.7    0.00 
 116   18:10   0.04   63.2    43   17.2   340    30.7   963.6    0.00 
 116   18:20   0.02   62.4    44   15.4   345    25.9   963.9    0.00 
 116   18:30   0.01   62.1    44   18.6   336    31.4   964.0    0.00 
 116   18:40   0.00   61.3    46   17.9   340    29.7   964.0    0.00 
 116   18:50   0.00   60.7    48   18.6   334    31.9   964.1    0.00 
 116   19:00   0.00   60.4    48   17.7   339    27.8   964.1    0.00 
 116   19:10   0.00   60.5    48   18.7   341    30.5   964.1    0.00 
 116   19:20   0.00   60.1    49   15.8   342    25.5   964.1    0.00 
 116   19:30   0.00   60.5    48   20.7   345    32.5   963.8    0.00 
 116   19:40   0.00   60.1    48   22.9   349    34.3   963.6    0.00 
 116   19:50   0.00   59.9    49   23.4     2    35.0   963.2    0.00 
 116   20:00   0.00   60.7    47   22.4     9    34.7   963.1    0.00 
 116   20:10   0.00   60.9    46   23.9     6    36.2   963.2    0.00 
 116   20:20   0.00   61.1    46   23.7    12    34.7   963.4    0.00 
 116   20:30   0.00   61.4    45   22.1    13    33.7   963.3    0.00 
 116   20:40   0.00   61.9    44   22.8    14    35.0   963.3    0.00 
 116   20:50   0.00   63.1    42   25.8     6    40.3   963.4    0.00 
 116   21:00   0.00   63.6    41   23.1     6    34.5   963.6    0.00 
 116   21:10   0.00   63.6    41   22.6    16    36.4   963.7    0.00 
 116   21:20   0.00   63.5    41   22.3     5    32.6   963.8    0.00 
 116   21:30   0.00   63.5    41   21.7     7    30.8   963.7    0.00 
 116   21:40   0.00   63.5    41   20.4     5    30.7   963.8    0.00 
 116   21:50   0.00   64.0    40   20.6     7    29.4   963.8    0.00 
 116   22:00   0.00   63.7    41   21.5    13    30.3   963.7    0.00 
 116   22:10   0.00   63.3    42   19.7    10    28.3   963.8    0.00 
 116   22:20   0.00   63.0    42   18.2    10    26.6   963.8    0.00 
 116   22:30   0.00   63.0    42   17.7   359    23.2   963.9    0.00 
 116   22:40   0.00   63.0    42   18.7    10    24.2   963.8    0.00 
 116   22:50   0.00   63.5    40   18.4     6    22.5   963.8    0.00 
 116   23:00   0.00   64.0    39   16.9    11    23.2   963.9    0.00 
 116   23:10   0.00   62.7    42   16.0    17    20.0   963.9    0.00 
 116   23:20   0.00   63.2    41   15.7    14    20.8   963.8    0.00 
 116   23:30   0.00   63.6    40   16.9    12    21.5   963.7    0.00 
 116   23:40   0.00   63.8    39   17.9     7    22.6   963.6    0.00 
 116   23:50   0.00   64.5    38   17.5     9    22.0   963.5    0.00 
 117    0:00   0.00   64.7    37   16.7    10    21.4   963.5    0.00 
 117    0:10   0.00   64.8    37   16.0     6    21.1   963.6    0.00 
 117    0:20   0.00   64.8    37   15.2    14    19.3   963.7    0.00 
 117    0:30   0.00   65.1    36   13.8    12    18.3   963.7    0.00 
 117    0:40   0.00   65.4    35   14.3     6    18.5   963.5    0.00 
 117    0:50   0.00   64.4    37   16.0    17    18.8   963.5    0.00 
 117    1:00   0.00   64.2    38   16.7    16    19.5   963.5    0.00 
 117    1:10   0.00   63.6    39   15.9    17    19.1   963.5    0.00 
 117    1:20   0.00   63.5    39   16.8    18    19.6   963.5    0.00 
 117    1:30   0.00   64.2    37   14.4    11    18.6   963.5    0.00 
 117    1:40   0.00   64.3    37   10.4    19    16.8   963.8    0.00 
 117    1:50   0.00   63.5    39    9.6    12    12.9   963.8    0.00 
 117    2:00   0.00   63.2    39    8.1    24    11.4   963.9    0.00 
 117    2:10   0.00   63.1    39    7.4    19     8.6   964.1    0.00 
 117    2:20   0.00   63.3    38    5.7    45     7.3   964.1    0.00 
 117    2:30   0.00   63.3    37    7.2    72    12.1   964.1    0.00 
 117    2:40   0.00   63.6    35   10.2    84    13.0   964.0    0.00 
 117    2:50   0.00   63.1    34   10.7    91    13.7   964.0    0.00 
 117    3:00   0.00   62.7    34   10.2    89    13.9   964.0    0.00 
 117    3:10   0.00   63.3    34    9.3    81    15.4   964.1    0.00 
 117    3:20   0.00   63.9    34   10.9    87    15.9   964.2    0.00 
 117    3:30   0.00   64.4    34    9.9    74    15.6   964.3    0.00 
 117    3:40   0.00   63.9    35    8.4    77    14.4   964.3    0.00 
 117    3:50   0.00   63.6    36   11.2    62    15.0   964.3    0.00 
 117    4:00   0.00   64.1    35   12.8    63    18.2   964.3    0.00 
 117    4:10   0.00   64.4    34   15.8    68    22.4   964.3    0.00 
 117    4:20   0.00   65.8    32   18.1    74    24.6   964.3    0.00 
 117    4:30   0.00   66.5    30   19.5    73    27.7   964.4    0.00 
 117    4:40   0.00   66.9    29   20.5    72    28.3   964.3    0.00 
 117    4:50   0.00   66.7    29   19.5    71    27.9   964.3    0.00 
 117    5:00   0.00   66.4    28   23.0    73    32.4   964.2    0.00 
 117    5:10   0.00   66.4    28   20.7    74    31.2   964.2    0.00 
 117    5:20   0.00   66.3    28   21.4    76    31.7   964.3    0.00 
 117    5:30   0.01   66.0    28   20.2    72    31.2   964.3    0.00 
 117    5:40   0.03   66.2    27   20.2    61    34.4   964.2    0.00 
 117    5:50   0.07   66.3    28   18.7    54    33.8   964.1    0.00 
 117    6:00   0.10   66.1    28   17.2    50    35.7   964.2    0.00 
 117    6:10   0.13   66.1    28   19.5    52    37.7   964.2    0.00 
 117    6:20   0.16   65.9    30   15.6    45    29.8   964.4    0.00 
 117    6:30   0.20   65.8    30   19.9    48    35.3   964.5    0.00 
 117    6:40   0.24   65.8    32   18.7    48    31.4   964.6    0.00 
 117    6:50   0.27   65.9    32   16.7    49    30.3   964.8    0.00 
 117    7:00   0.31   66.1    31   16.8    52    35.2   964.9    0.00 
 117    7:10   0.35   66.8    29   16.2    53    27.8   964.9    0.00 
 117    7:20   0.39   67.6    28   16.0    53    29.5   965.1    0.00 
 117    7:30   0.42   68.3    27   16.2    51    29.7   965.3    0.00 
 117    7:40   0.46   69.1    26   15.4    55    28.8   965.4    0.00 
 117    7:50   0.49   69.3    26   15.9    53    30.0   965.4    0.00 
 117    8:00   0.53   70.3    25   15.6    52    28.4   965.4    0.00 
 117    8:10   0.56   71.1    25   12.8    54    27.8   965.5    0.00 
 117    8:20   0.60   71.8    25   10.9    57    20.6   965.5    0.00 
 117    8:30   0.63   72.6    24   10.9    59    20.0   965.7    0.00 
 117    8:40   0.66   73.5    24   10.5    62    21.0   965.7    0.00 
 117    8:50   0.69   74.5    23   10.2    58    21.5   965.8    0.00 
 117    9:00   0.72   75.2    22   10.0    55    19.1   965.8    0.00 
 117    9:10   0.75   75.5    22    7.5    60    19.4   965.8    0.00 
 117    9:20   0.78   75.7    22    7.4    64    17.8   965.9    0.00 
 117    9:30   0.80   76.8    21    8.6    52    16.7   965.9    0.00 
 117    9:40   0.83   77.2    21    9.3    53    18.0   965.9    0.00 
 117    9:50   0.85   77.2    22    8.1    47    17.0   966.0    0.00 
 117   10:00   0.87   77.4    22    9.2    52    18.1   966.0    0.00 
 117   10:10   0.89   78.9    21    8.2    52    16.7   966.0    0.00 
 117   10:20   0.91   79.2    21    5.1    58    11.0   966.1    0.00 
 117   10:30   0.92   80.5    20    6.5    60    15.9   966.1    0.00 
 117   10:40   0.94   81.1    20    5.6    54    13.4   966.1    0.00 
 117   10:50   0.95   80.1    21    5.6    49    12.9   966.1    0.00 
 117   11:00   0.96   81.7    20    4.0    60     8.8   966.2    0.00 
 117   11:10   0.97   82.7    20    4.3    62     8.3   966.2    0.00 
 117   11:20   0.97   81.7    21    2.7    43     8.1   966.2    0.00 
 117   11:30   0.98   78.5    23    5.8    29    10.3   966.1    0.00 
 117   11:40   0.98   79.1    22    2.4    50     7.5   966.1    0.00 
 117   11:50   0.98   80.1    21    2.7    62     6.6   966.1    0.00 
 117   12:00   0.98   81.0    21    2.9    79     6.9   966.1    0.00 
 117   12:10   0.98   82.3    20    3.9    63     6.9   966.1    0.00 
 117   12:20   0.98   83.6    19    4.2    75     7.6   966.1    0.00 
 117   12:30   0.97   82.1    20    3.5    42     7.4   966.0    0.00 
 117   12:40   0.96   80.6    22    5.0    42     9.0   965.9    0.00 
 117   12:50   0.95   81.1    21    3.5    57     6.6   965.8    0.00 
 117   13:00   0.95   81.0    20    5.6    38     9.6   965.7    0.00 
 117   13:10   0.93   81.1    20    6.3    45     9.9   965.7    0.00 
 117   13:20   0.92   83.0    19    6.0    43     9.6   965.7    0.00 
 117   13:30   0.90   83.9    18    4.2    44     7.2   965.6    0.00 
 117   13:40   0.88   82.8    19    6.4    44     9.3   965.5    0.00 
 117   13:50   0.86   81.4    20    5.5    44     8.3   965.5    0.00 
 117   14:00   0.84   81.3    20    4.6    39     6.7   965.4    0.00 
 117   14:10   0.82   81.0    20    5.0    33     9.8   965.3    0.00 
 117   14:20   0.80   82.1    20    7.3    40    10.7   965.2    0.00 
 117   14:30   0.77   80.1    22    7.5    32    10.2   965.0    0.00 
 117   14:40   0.74   78.2    22    8.3    36    11.5   964.9    0.00 

Return to Valley Peak, Santa Cruz Island Reserve graphs page.


Western Regional Climate Center,wrcc@dri.edu